createdAt,value
2022-12-08T00:00:54.352Z,100026.44
2022-12-08T00:03:21.302Z,100025.63
2022-12-08T00:06:07.786Z,100022.09
2022-12-08T00:08:53.197Z,100022.09
2022-12-08T00:11:20.248Z,100021.03
2022-12-08T00:13:46.974Z,100018.34
2022-12-08T00:16:16.185Z,100018.78
2022-12-08T00:18:42.920Z,100011.63
2022-12-08T00:21:09.609Z,100017.69
2022-12-08T00:23:36.341Z,100016.88
2022-12-08T00:26:06.457Z,100009.06
2022-12-08T00:28:33.603Z,100010.03
2022-12-08T00:31:00.844Z,100009.03
2022-12-08T00:33:28.598Z,100003.66
2022-12-08T00:35:55.477Z,100014.00
2022-12-08T00:38:22.450Z,100003.53
2022-12-08T00:40:49.157Z,100008.72
2022-12-08T00:43:16.055Z,99996.44
2022-12-08T00:45:43.155Z,99989.50
2022-12-08T00:48:09.851Z,99986.94
2022-12-08T00:50:39.042Z,99992.16
2022-12-08T00:53:05.755Z,99993.88
2022-12-08T00:55:32.417Z,99984.38
2022-12-08T00:57:59.105Z,99986.88
2022-12-08T01:00:25.860Z,99983.34
2022-12-08T01:02:52.722Z,99976.28
2022-12-08T01:05:19.468Z,99972.91
2022-12-08T01:07:46.199Z,99977.16
2022-12-08T01:10:12.931Z,99982.34
2022-12-08T01:12:39.624Z,99983.19
2022-12-08T01:15:06.805Z,99977.94
2022-12-08T01:17:33.496Z,99978.81
2022-12-08T01:20:02.457Z,99979.72
2022-12-08T01:22:29.511Z,99983.19
2022-12-08T01:24:56.284Z,99982.28
2022-12-08T01:27:22.954Z,99984.97
2022-12-08T01:29:49.712Z,99978.81
2022-12-08T01:32:16.403Z,99976.22
2022-12-08T01:34:43.111Z,99981.38
2022-12-08T01:37:09.827Z,99978.81
2022-12-08T01:39:36.552Z,99979.59
2022-12-08T01:42:03.249Z,99970.97
2022-12-08T01:44:29.888Z,99970.09
2022-12-08T01:46:56.631Z,99965.75
2022-12-08T01:49:27.364Z,99964.16
2022-12-08T01:51:58.563Z,99956.38
2022-12-08T01:54:28.804Z,99953.69
2022-12-08T01:57:01.397Z,99958.84
2022-12-08T01:59:29.435Z,99955.34
2022-12-08T02:01:57.249Z,99954.31
2022-12-08T02:04:23.977Z,99952.53
2022-12-08T02:06:51.036Z,99956.94
2022-12-08T02:09:19.367Z,99949.94
2022-12-08T02:11:46.192Z,99949.09
2022-12-08T02:14:13.848Z,99952.41
2022-12-08T02:17:04.474Z,99942.88
2022-12-08T02:20:09.035Z,99934.16
2022-12-08T02:22:56.952Z,99932.38
2022-12-08T02:25:26.718Z,99934.06
2022-12-08T02:28:10.774Z,99933.25
2022-12-08T02:30:59.306Z,99927.06
2022-12-08T02:33:43.272Z,99920.00
2022-12-08T02:36:16.461Z,99916.41
2022-12-08T02:39:01.999Z,99920.81
2022-12-08T02:41:32.323Z,99914.69
2022-12-08T02:44:06.608Z,99922.47
2022-12-08T02:46:40.165Z,99917.97
2022-12-08T02:49:07.318Z,99914.34
2022-12-08T02:51:34.045Z,99910.81
2022-12-08T02:54:01.458Z,99900.44
2022-12-08T02:56:55.908Z,99904.84
2022-12-08T02:59:51.481Z,99894.44
2022-12-08T03:02:44.110Z,99886.56
2022-12-08T03:05:27.628Z,99893.50
2022-12-08T03:08:18.124Z,99882.19
2022-12-08T03:10:55.519Z,99883.84
2022-12-08T03:13:45.275Z,99876.94
2022-12-08T03:16:15.435Z,99879.44
2022-12-08T03:18:47.263Z,99862.84
2022-12-08T03:21:15.738Z,99870.63
2022-12-08T03:23:44.948Z,99871.44
2022-12-08T03:26:23.804Z,99868.88
2022-12-08T03:28:50.600Z,99856.75
2022-12-08T03:31:18.857Z,99853.09
2022-12-08T03:33:51.133Z,99852.19
2022-12-08T03:36:18.450Z,99843.41
2022-12-08T03:38:46.195Z,99840.78
2022-12-08T03:41:18.800Z,99839.13
2022-12-08T03:43:50.718Z,99836.44
2022-12-08T03:46:18.080Z,99831.19
2022-12-08T03:48:44.942Z,99828.50
2022-12-08T03:51:12.113Z,99820.72
2022-12-08T03:53:39.075Z,99827.69
2022-12-08T03:56:15.806Z,99824.13
2022-12-08T03:58:43.256Z,99816.28
2022-12-08T04:01:09.955Z,99819.75
2022-12-08T04:03:36.907Z,99810.34
2022-12-08T04:06:03.710Z,99815.56
2022-12-08T04:08:30.440Z,99810.19
2022-12-08T04:10:57.121Z,99797.25
2022-12-08T04:13:23.967Z,99796.28
2022-12-08T04:15:50.782Z,99797.94
2022-12-08T04:18:17.792Z,99791.88
2022-12-08T04:20:45.286Z,99792.78
2022-12-08T04:23:12.513Z,99795.94
2022-12-08T04:25:39.486Z,99784.56
2022-12-08T04:28:07.104Z,99787.25
2022-12-08T04:30:34.671Z,99788.28
2022-12-08T04:33:01.350Z,99782.22
2022-12-08T04:35:28.562Z,99785.81
2022-12-08T04:37:55.223Z,99779.59
2022-12-08T04:40:21.962Z,99781.16
2022-12-08T04:42:48.633Z,99773.31
2022-12-08T04:45:15.416Z,99786.34
2022-12-08T04:47:42.929Z,99786.41
2022-12-08T04:50:10.149Z,99775.88
2022-12-08T04:52:37.076Z,99779.03
2022-12-08T04:55:04.091Z,99771.41
2022-12-08T04:57:30.739Z,99775.94
2022-12-08T04:59:57.445Z,99768.78
2022-12-08T05:02:24.162Z,99769.13
2022-12-08T05:04:50.864Z,99764.84
2022-12-08T05:07:17.539Z,99764.66
2022-12-08T05:09:44.996Z,99770.09
2022-12-08T05:12:14.270Z,99765.69
2022-12-08T05:14:40.934Z,99770.09
2022-12-08T05:17:10.116Z,99767.63
2022-12-08T05:19:36.964Z,99770.25
2022-12-08T05:22:03.646Z,99760.59
2022-12-08T05:24:30.433Z,99763.13
2022-12-08T05:26:57.263Z,99764.88
2022-12-08T05:29:24.032Z,99753.56
2022-12-08T05:31:50.880Z,99762.34
2022-12-08T05:34:17.645Z,99760.59
2022-12-08T05:36:44.311Z,99758.81
2022-12-08T05:39:14.822Z,99753.44
2022-12-08T05:41:41.888Z,99763.97
2022-12-08T05:44:08.832Z,99756.03
2022-12-08T05:46:36.068Z,99755.91
2022-12-08T05:49:03.587Z,99758.50
2022-12-08T05:51:30.702Z,99755.91
2022-12-08T05:53:57.674Z,99748.78
2022-12-08T05:56:24.911Z,99749.78
2022-12-08T05:58:51.736Z,99746.31
2022-12-08T06:01:30.222Z,99746.41
2022-12-08T06:04:01.488Z,99746.41
2022-12-08T06:06:29.046Z,99753.34
2022-12-08T06:08:55.905Z,99748.88
2022-12-08T06:11:28.491Z,99740.19
2022-12-08T06:13:56.851Z,99745.97
2022-12-08T06:16:26.244Z,99737.06
2022-12-08T06:18:53.419Z,99744.00
2022-12-08T06:21:20.616Z,99748.28
2022-12-08T06:23:52.472Z,99743.03
2022-12-08T06:26:19.570Z,99740.59
2022-12-08T06:28:46.344Z,99736.81
2022-12-08T06:31:22.399Z,99737.66
2022-12-08T06:33:49.439Z,99746.25
2022-12-08T06:36:17.857Z,99748.81
2022-12-08T06:38:45.435Z,99751.41
2022-12-08T06:41:12.532Z,99753.28
2022-12-08T06:43:39.607Z,99754.94
2022-12-08T06:46:07.886Z,99748.03
2022-12-08T06:48:34.643Z,99752.31
2022-12-08T06:51:08.314Z,99741.81
2022-12-08T06:53:35.082Z,99742.41
2022-12-08T06:56:02.015Z,99738.16
2022-12-08T06:58:28.834Z,99744.22
2022-12-08T07:00:55.671Z,99756.59
2022-12-08T07:03:22.779Z,99748.66
2022-12-08T07:05:49.470Z,99747.66
2022-12-08T07:08:16.242Z,99757.09
2022-12-08T07:10:43.033Z,99752.53
2022-12-08T07:13:09.746Z,99752.50
2022-12-08T07:15:36.594Z,99753.13
2022-12-08T07:18:03.351Z,99761.00
2022-12-08T07:20:30.074Z,99755.66
2022-12-08T07:22:56.791Z,99746.91
2022-12-08T07:25:23.653Z,99752.91
2022-12-08T07:27:51.825Z,99756.38
2022-12-08T07:30:18.789Z,99749.44
2022-12-08T07:32:45.806Z,99759.84
2022-12-08T07:35:12.719Z,99755.59
2022-12-08T07:37:39.405Z,99752.56
2022-12-08T07:40:08.633Z,99746.75
2022-12-08T07:42:35.690Z,99752.81
2022-12-08T07:45:02.552Z,99745.75
2022-12-08T07:47:29.221Z,99757.81
2022-12-08T07:49:56.110Z,99750.09
2022-12-08T07:52:23.449Z,99751.66
2022-12-08T07:54:50.220Z,99751.53
2022-12-08T07:57:17.029Z,99750.53
2022-12-08T07:59:43.695Z,99746.28
2022-12-08T08:02:24.797Z,99752.19
2022-12-08T08:04:53.289Z,99760.84
2022-12-08T08:07:20.120Z,99756.59
2022-12-08T08:09:46.850Z,99755.59
2022-12-08T08:15:01.449Z,99762.53
2022-12-08T08:17:29.630Z,99769.47
2022-12-08T08:19:57.231Z,99760.88
2022-12-08T08:22:25.119Z,99766.19
2022-12-08T08:24:51.852Z,99769.41
2022-12-08T08:27:18.548Z,99770.38
2022-12-08T08:29:45.248Z,99761.53
2022-12-08T08:32:12.196Z,99758.59
2022-12-08T08:34:39.037Z,99763.91
2022-12-08T08:37:05.852Z,99754.06
2022-12-08T08:39:32.620Z,99760.16
2022-12-08T08:41:59.444Z,99758.06
2022-12-08T08:44:26.212Z,99750.84
2022-12-08T08:46:53.033Z,99750.31
2022-12-08T08:49:20.226Z,99754.56
2022-12-08T08:51:47.104Z,99758.81
2022-12-08T08:54:13.813Z,99764.13
2022-12-08T08:56:40.485Z,99746.56
2022-12-08T08:59:07.483Z,99757.13
2022-12-08T09:01:34.342Z,99752.97
2022-12-08T09:04:01.684Z,99752.00
2022-12-08T09:06:28.711Z,99748.59
2022-12-08T09:08:55.683Z,99741.56
2022-12-08T09:11:23.611Z,99745.97
2022-12-08T09:13:52.119Z,99744.13
2022-12-08T09:16:19.436Z,99746.63
2022-12-08T09:18:46.476Z,99750.03
2022-12-08T09:21:16.630Z,99745.00
2022-12-08T09:23:44.063Z,99740.50
2022-12-08T09:26:10.851Z,99741.16
2022-12-08T09:28:38.049Z,99742.72
2022-12-08T09:31:07.045Z,99732.03
2022-12-08T09:33:33.824Z,99738.00
2022-12-08T09:36:04.094Z,99738.84
2022-12-08T09:38:31.025Z,99724.81
2022-12-08T09:40:58.541Z,99726.28
2022-12-08T09:43:46.185Z,99726.38
2022-12-08T09:46:15.030Z,99726.06
2022-12-08T09:48:47.588Z,99731.19
2022-12-08T09:51:15.276Z,99714.13
2022-12-08T09:53:51.247Z,99712.09
2022-12-08T09:56:23.147Z,99719.22
2022-12-08T09:58:57.217Z,99730.97
2022-12-08T10:01:28.416Z,99702.72
2022-12-08T10:03:56.200Z,99701.19
2022-12-08T10:06:42.159Z,99712.50
2022-12-08T10:09:27.193Z,99704.06
2022-12-08T10:12:01.055Z,99706.91
2022-12-08T10:14:41.968Z,99703.59
2022-12-08T10:17:16.568Z,99710.13
2022-12-08T10:19:43.821Z,99716.44
2022-12-08T10:22:25.348Z,99713.66
2022-12-08T10:25:01.159Z,99709.63
2022-12-08T10:27:28.032Z,99714.16
2022-12-08T10:29:54.772Z,99698.34
2022-12-08T10:32:25.214Z,99701.97
2022-12-08T10:35:05.191Z,99696.88
2022-12-08T10:37:32.005Z,99694.88
2022-12-08T10:40:01.664Z,99702.88
2022-12-08T10:42:41.273Z,99697.63
2022-12-08T10:45:26.772Z,99694.25
2022-12-08T10:48:00.264Z,99688.16
2022-12-08T10:50:46.723Z,99690.81
2022-12-08T10:53:25.475Z,99682.13
2022-12-08T10:55:58.226Z,99684.66
2022-12-08T10:58:36.296Z,99682.84
2022-12-08T11:01:19.242Z,99682.84
2022-12-08T11:03:50.298Z,99685.38
2022-12-08T11:06:23.635Z,99683.47
2022-12-08T11:08:53.364Z,99675.72
2022-12-08T11:11:27.612Z,99682.84
2022-12-08T11:13:56.618Z,99676.63
2022-12-08T11:16:23.707Z,99669.72
2022-12-08T11:18:57.645Z,99672.97
2022-12-08T11:21:35.632Z,99683.25
2022-12-08T11:24:22.873Z,99684.16
2022-12-08T11:27:03.570Z,99678.22
2022-12-08T11:29:32.299Z,99671.59
2022-12-08T11:32:12.946Z,99660.25
2022-12-08T11:34:53.689Z,99664.66
2022-12-08T11:37:37.223Z,99675.84
2022-12-08T11:40:28.869Z,99668.41
2022-12-08T11:43:20.488Z,99668.13
2022-12-08T11:45:50.559Z,99665.28
2022-12-08T11:48:19.763Z,99669.47
2022-12-08T11:50:53.596Z,99672.59
2022-12-08T11:53:36.042Z,99680.34
2022-12-08T11:56:10.595Z,99677.16
2022-12-08T11:58:51.652Z,99684.94
2022-12-08T12:01:23.974Z,99678.72
2022-12-08T12:03:59.402Z,99676.38
2022-12-08T12:06:58.592Z,99677.28
2022-12-08T12:09:36.716Z,99680.22
2022-12-08T12:12:21.510Z,99676.94
2022-12-08T12:15:16.299Z,99681.97
2022-12-08T12:17:59.869Z,99680.28
2022-12-08T12:20:33.693Z,99680.50
2022-12-08T12:23:07.622Z,99682.47
2022-12-08T12:25:35.674Z,99690.34
2022-12-08T12:28:07.308Z,99685.88
2022-12-08T12:30:52.673Z,99679.13
2022-12-08T12:33:20.609Z,99674.53
2022-12-08T12:35:48.371Z,99681.69
2022-12-08T12:38:41.084Z,99685.25
2022-12-08T12:41:08.358Z,99674.69
2022-12-08T12:43:38.255Z,99679.84
2022-12-08T12:46:39.170Z,99679.28
2022-12-08T12:49:43.965Z,99678.78
2022-12-08T12:52:10.615Z,99672.88
2022-12-08T12:54:42.499Z,99667.78
2022-12-08T12:57:09.328Z,99666.81
2022-12-08T12:59:55.122Z,99662.97
2022-12-08T13:02:23.307Z,99663.91
2022-12-08T13:05:01.744Z,99667.28
2022-12-08T13:07:34.788Z,99664.75
2022-12-08T13:10:17.918Z,99664.66
2022-12-08T13:12:46.549Z,99662.91
2022-12-08T13:15:19.735Z,99664.47
2022-12-08T13:17:47.329Z,99659.22
2022-12-08T13:20:23.611Z,99657.44
2022-12-08T13:23:13.568Z,99660.78
2022-12-08T13:25:40.232Z,99658.16
2022-12-08T13:28:15.992Z,99665.22
2022-12-08T13:30:46.952Z,99663.41
2022-12-08T13:33:30.856Z,99662.53
2022-12-08T13:36:05.520Z,99662.31
2022-12-08T13:38:35.578Z,99665.94
2022-12-08T13:41:07.037Z,99664.31
2022-12-08T13:44:31.222Z,99669.41
2022-12-08T13:47:16.700Z,99676.44
2022-12-08T13:54:16.305Z,99678.44
2022-12-08T13:58:45.523Z,99675.03
2022-12-08T14:01:16.266Z,99675.88
2022-12-08T14:04:12.849Z,99685.66
2022-12-08T14:06:43.147Z,99691.63
2022-12-08T14:09:21.634Z,99688.91
2022-12-08T14:11:54.588Z,99685.47
2022-12-08T14:15:00.620Z,99680.97
2022-12-08T14:17:21.906Z,99689.31
2022-12-08T14:20:01.364Z,99694.88
2022-12-08T14:22:36.506Z,99688.34
2022-12-08T14:25:04.723Z,99691.81
2022-12-08T14:27:36.719Z,99695.16
2022-12-08T14:30:13.487Z,99695.22
2022-12-08T14:32:44.522Z,99695.44
2022-12-08T14:35:11.153Z,99694.88
2022-12-08T14:37:41.648Z,99706.50
2022-12-08T14:40:29.945Z,99696.91
2022-12-08T14:43:09.001Z,99697.13
2022-12-08T14:45:45.166Z,99710.31
2022-12-08T14:48:30.872Z,99705.19
2022-12-08T14:51:03.249Z,99707.06
2022-12-08T14:53:41.814Z,99699.84
2022-12-08T14:56:38.660Z,99712.16
2022-12-08T14:59:07.819Z,99701.66
2022-12-08T15:01:35.180Z,99705.19
2022-12-08T15:04:17.219Z,99702.66
2022-12-08T15:06:49.774Z,99699.84
2022-12-08T15:09:37.577Z,99713.53
2022-12-08T15:12:26.361Z,99715.22
2022-12-08T15:14:57.668Z,99708.28
2022-12-08T15:17:36.074Z,99709.19
2022-12-08T15:20:04.489Z,99702.25
2022-12-08T15:22:31.794Z,99706.56
2022-12-08T15:24:58.724Z,99707.72
2022-12-08T15:27:25.749Z,99710.25
2022-12-08T15:29:52.956Z,99710.97
2022-12-08T15:32:22.491Z,99713.78
2022-12-08T15:34:49.937Z,99718.84
2022-12-08T15:37:22.541Z,99718.03
2022-12-08T15:39:49.372Z,99722.53
2022-12-08T15:42:16.204Z,99723.56
2022-12-08T15:44:43.203Z,99714.50
2022-12-08T15:47:15.730Z,99732.72
2022-12-08T15:49:42.531Z,99725.06
2022-12-08T15:52:18.313Z,99729.59
2022-12-08T15:54:45.090Z,99738.19
2022-12-08T15:57:53.402Z,99732.94
2022-12-08T16:00:50.515Z,99728.19
2022-12-08T16:03:59.382Z,99726.47
2022-12-08T16:09:06.124Z,99734.59
2022-12-08T16:12:06.566Z,99731.97
2022-12-08T16:17:21.636Z,99730.41
2022-12-08T16:19:49.178Z,99739.06
2022-12-08T16:25:18.301Z,99741.81
2022-12-08T16:30:33.607Z,99749.56
2022-12-08T16:33:00.273Z,99754.00
2022-12-08T16:35:26.945Z,99753.16
2022-12-08T16:37:53.649Z,99750.31
2022-12-08T16:40:20.397Z,99749.50
2022-12-08T16:42:48.643Z,99742.59
2022-12-08T16:45:29.611Z,99749.16
2022-12-08T16:48:01.147Z,99748.38
2022-12-08T16:50:33.982Z,99744.84
2022-12-08T16:53:06.338Z,99751.34
2022-12-08T16:55:34.202Z,99753.97
2022-12-08T16:58:02.739Z,99751.44
2022-12-08T17:00:30.949Z,99754.97
2022-12-08T17:02:59.028Z,99754.06
2022-12-08T17:05:26.043Z,99754.94
2022-12-08T17:07:53.436Z,99759.53
2022-12-08T17:10:24.294Z,99758.88
2022-12-08T17:12:50.889Z,99755.59
2022-12-08T17:15:21.059Z,99757.47
2022-12-08T17:17:48.207Z,99760.16
2022-12-08T17:20:21.290Z,99758.38
2022-12-08T17:22:48.249Z,99763.81
2022-12-08T17:25:15.040Z,99758.34
2022-12-08T17:27:42.313Z,99763.59
2022-12-08T17:30:11.804Z,99763.69
2022-12-08T17:32:39.135Z,99774.44
2022-12-08T17:35:06.632Z,99769.19
2022-12-08T17:37:33.732Z,99773.84
2022-12-08T17:40:00.678Z,99771.94
2022-12-08T17:42:27.451Z,99771.16
2022-12-08T17:44:54.625Z,99783.28
2022-12-08T17:47:22.016Z,99788.50
2022-12-08T17:49:48.798Z,99784.34
2022-12-08T17:52:15.621Z,99786.88
2022-12-08T17:54:42.368Z,99788.81
2022-12-08T17:57:11.780Z,99791.94
2022-12-08T17:59:38.470Z,99781.63
2022-12-08T18:02:05.551Z,99780.97
2022-12-08T18:04:32.336Z,99781.88
2022-12-08T18:07:01.382Z,99791.81
2022-12-08T18:09:30.096Z,99790.00
2022-12-08T18:11:56.953Z,99790.59
2022-12-08T18:14:23.687Z,99786.13
2022-12-08T18:16:50.461Z,99783.78
2022-12-08T18:19:17.316Z,99792.25
2022-12-08T18:21:44.437Z,99795.53
2022-12-08T18:24:22.360Z,99790.69
2022-12-08T18:26:52.169Z,99794.97
2022-12-08T18:29:20.295Z,99789.78
2022-12-08T18:31:47.135Z,99794.88
2022-12-08T18:34:13.943Z,99794.81
2022-12-08T18:36:40.693Z,99800.88
2022-12-08T18:39:11.035Z,99799.91
2022-12-08T18:41:37.834Z,99794.81
2022-12-08T18:44:04.763Z,99805.28
2022-12-08T18:46:31.912Z,99800.41
2022-12-08T18:48:59.539Z,99808.25
2022-12-08T18:51:26.390Z,99812.88
2022-12-08T18:53:53.522Z,99817.38
2022-12-08T18:56:26.106Z,99811.34
2022-12-08T18:58:57.365Z,99814.97
2022-12-08T19:01:28.974Z,99823.16
2022-12-08T19:04:26.898Z,99826.88
2022-12-08T19:06:44.372Z,99813.47
2022-12-08T19:09:15.954Z,99822.78
2022-12-08T19:11:42.884Z,99823.97
2022-12-08T19:14:10.078Z,99830.06
2022-12-08T19:16:37.148Z,99836.03
2022-12-08T19:19:04.482Z,99838.84
2022-12-08T19:21:32.011Z,99845.13
2022-12-08T19:24:00.072Z,99837.88
2022-12-08T19:26:29.388Z,99836.72
2022-12-08T19:28:56.368Z,99842.75
2022-12-08T19:31:23.121Z,99837.53
2022-12-08T19:33:50.001Z,99833.88
2022-12-08T19:36:19.186Z,99840.94
2022-12-08T19:39:04.600Z,99836.03
2022-12-08T19:41:50.432Z,99856.13
2022-12-08T19:44:19.509Z,99863.25
2022-12-08T19:46:46.266Z,99854.75
2022-12-08T19:49:13.031Z,99851.41
2022-12-08T19:51:39.798Z,99857.25
2022-12-08T19:54:06.578Z,99854.00
2022-12-08T19:56:33.503Z,99858.53
2022-12-08T19:59:00.232Z,99859.09
2022-12-08T20:01:27.051Z,99864.06
2022-12-08T20:03:53.947Z,99865.72
2022-12-08T20:06:20.905Z,99870.00
2022-12-08T20:08:50.555Z,99870.25
2022-12-08T20:11:17.756Z,99865.91
2022-12-08T20:13:45.868Z,99867.03
2022-12-08T20:16:12.772Z,99868.94
2022-12-08T20:18:40.551Z,99870.00
2022-12-08T20:21:07.618Z,99867.22
2022-12-08T20:23:34.774Z,99869.84
2022-12-08T20:26:07.469Z,99872.34
2022-12-08T20:28:35.120Z,99878.66
2022-12-08T20:31:02.276Z,99881.22
2022-12-08T20:33:29.164Z,99873.44
2022-12-08T20:36:00.511Z,99871.66
2022-12-08T20:38:28.227Z,99876.94
2022-12-08T20:40:55.305Z,99882.38
2022-12-08T20:43:22.213Z,99882.38
2022-12-08T20:45:48.866Z,99883.69
2022-12-08T20:48:15.681Z,99888.94
2022-12-08T20:50:42.612Z,99893.91
2022-12-08T20:53:09.528Z,99892.78
2022-12-08T20:55:36.808Z,99885.59
2022-12-08T20:58:03.773Z,99897.19
2022-12-08T21:00:30.753Z,99893.94
2022-12-08T21:02:57.711Z,99890.03
2022-12-08T21:05:24.798Z,99893.63
2022-12-08T21:07:51.897Z,99888.56
2022-12-08T21:10:18.855Z,99899.72
2022-12-08T21:12:45.756Z,99900.91
2022-12-08T21:15:12.866Z,99900.91
2022-12-08T21:17:39.893Z,99903.84
2022-12-08T21:20:07.887Z,99902.94
2022-12-08T21:22:34.756Z,99908.56
2022-12-08T21:25:01.618Z,99905.97
2022-12-08T21:27:28.437Z,99905.34
2022-12-08T21:29:56.289Z,99920.66
2022-12-08T21:32:30.289Z,99918.75
2022-12-08T21:34:57.631Z,99917.97
2022-12-08T21:37:24.604Z,99924.94
2022-12-08T21:39:51.812Z,99927.94
2022-12-08T21:42:37.481Z,99929.53
2022-12-08T21:45:04.832Z,99926.66
2022-12-08T21:47:31.676Z,99919.81
2022-12-08T21:49:58.467Z,99917.72
2022-12-08T21:52:25.369Z,99921.97
2022-12-08T21:54:52.160Z,99915.34
2022-12-08T21:57:19.334Z,99917.78
2022-12-08T21:59:46.240Z,99918.50
2022-12-08T22:02:16.818Z,99931.75
2022-12-08T22:04:50.154Z,99925.16
2022-12-08T22:07:17.106Z,99926.44
2022-12-08T22:09:48.343Z,99928.03
2022-12-08T22:12:16.875Z,99928.94
2022-12-08T22:14:44.172Z,99923.56
2022-12-08T22:17:11.216Z,99922.06
2022-12-08T22:19:38.202Z,99926.81
2022-12-08T22:22:08.720Z,99930.25
2022-12-08T22:24:42.481Z,99926.88
2022-12-08T22:27:13.604Z,99930.00
2022-12-08T22:29:47.665Z,99938.63
2022-12-08T22:32:20.499Z,99932.41
2022-12-08T22:34:48.509Z,99931.72
2022-12-08T22:37:16.423Z,99931.44
2022-12-08T22:39:45.005Z,99928.16
2022-12-08T22:42:13.526Z,99927.28
2022-12-08T22:44:42.137Z,99931.50
2022-12-08T22:47:10.910Z,99927.94
2022-12-08T22:49:39.828Z,99925.25
2022-12-08T22:52:19.283Z,99923.47
2022-12-08T22:54:46.893Z,99913.84
2022-12-08T22:57:16.638Z,99927.78
2022-12-08T22:59:45.161Z,99930.47
2022-12-08T23:02:15.492Z,99923.47
2022-12-08T23:04:43.777Z,99924.34
2022-12-08T23:07:15.310Z,99921.81
2022-12-08T23:09:46.428Z,99916.63
2022-12-08T23:12:14.557Z,99917.59
2022-12-08T23:14:55.952Z,99913.19
2022-12-08T23:17:33.901Z,99911.53
2022-12-08T23:20:02.309Z,99914.31
2022-12-08T23:22:33.317Z,99902.97
2022-12-08T23:25:00.844Z,99903.09
2022-12-08T23:27:27.579Z,99912.72
2022-12-08T23:29:54.260Z,99910.84
2022-12-08T23:32:21.300Z,99913.63
2022-12-08T23:34:48.416Z,99914.47
2022-12-08T23:37:15.403Z,99925.09
2022-12-08T23:39:42.265Z,99926.88
2022-12-08T23:42:09.010Z,99931.22
2022-12-08T23:44:36.231Z,99927.78
2022-12-08T23:47:03.305Z,99923.53
2022-12-08T23:49:30.314Z,99934.84
2022-12-08T23:51:57.218Z,99922.78
2022-12-08T23:54:24.003Z,99918.44
2022-12-08T23:56:51.126Z,99923.69
2022-12-08T23:59:17.860Z,99915.03
